sensor_id;sensor_type;location;lat;lon;timestamp;pressure;altitude;pressure_sealevel;temperature;humidity
61645;BME280;47553;52.428;13.382;2022-11-20T00:00:51;100616.41;;;-0.59;100.00
61645;BME280;47553;52.428;13.382;2022-11-20T00:02:52;100613.03;;;-0.66;100.00
61645;BME280;47553;52.428;13.382;2022-11-20T00:04:54;100613.78;;;-0.58;100.00
61645;BME280;47553;52.428;13.382;2022-11-20T00:06:56;100611.91;;;-0.50;100.00
61645;BME280;47553;52.428;13.382;2022-11-20T00:08:59;100589.53;;;-0.72;100.00
61645;BME280;47553;52.428;13.382;2022-11-20T00:11:03;100600.63;;;-0.55;100.00
61645;BME280;47553;52.428;13.382;2022-11-20T00:13:06;100603.31;;;-0.58;100.00
61645;BME280;47553;52.428;13.382;2022-11-20T00:15:09;100602.53;;;-0.66;100.00
61645;BME280;47553;52.428;13.382;2022-11-20T00:17:11;100611.28;;;-0.67;100.00
61645;BME280;47553;52.428;13.382;2022-11-20T00:19:12;100603.25;;;-0.55;100.00
61645;BME280;47553;52.428;13.382;2022-11-20T00:21:15;100593.81;;;-0.66;100.00
61645;BME280;47553;52.428;13.382;2022-11-20T00:23:17;100605.06;;;-0.60;100.00
61645;BME280;47553;52.428;13.382;2022-11-20T00:25:20;100600.84;;;-0.70;100.00
61645;BME280;47553;52.428;13.382;2022-11-20T00:27:22;100611.34;;;-0.72;100.00
61645;BME280;47553;52.428;13.382;2022-11-20T00:29:23;100609.25;;;-0.47;100.00
61645;BME280;47553;52.428;13.382;2022-11-20T00:31:25;100604.13;;;-0.56;100.00
61645;BME280;47553;52.428;13.382;2022-11-20T00:33:27;100604.84;;;-0.45;100.00
61645;BME280;47553;52.428;13.382;2022-11-20T00:35:29;100605.03;;;-0.57;100.00
61645;BME280;47553;52.428;13.382;2022-11-20T00:37:31;100604.97;;;-0.54;100.00
61645;BME280;47553;52.428;13.382;2022-11-20T00:39:32;100602.47;;;-0.61;100.00
61645;BME280;47553;52.428;13.382;2022-11-20T00:41:35;100611.72;;;-0.38;100.00
61645;BME280;47553;52.428;13.382;2022-11-20T00:43:38;100610.03;;;-0.42;100.00
61645;BME280;47553;52.428;13.382;2022-11-20T00:45:39;100616.91;;;-0.34;100.00
61645;BME280;47553;52.428;13.382;2022-11-20T00:47:41;100614.41;;;-0.42;100.00
61645;BME280;47553;52.428;13.382;2022-11-20T00:49:42;100610.91;;;-0.41;100.00
61645;BME280;47553;52.428;13.382;2022-11-20T00:51:44;100616.88;;;-0.31;100.00
61645;BME280;47553;52.428;13.382;2022-11-20T00:53:46;100614.41;;;-0.42;100.00
61645;BME280;47553;52.428;13.382;2022-11-20T00:55:58;100608.31;;;-0.43;100.00
61645;BME280;47553;52.428;13.382;2022-11-20T00:58:01;100599.78;;;-0.57;100.00
61645;BME280;47553;52.428;13.382;2022-11-20T01:00:06;100607.50;;;-0.48;100.00
61645;BME280;47553;52.428;13.382;2022-11-20T01:02:08;100614.31;;;-0.36;100.00
61645;BME280;47553;52.428;13.382;2022-11-20T01:04:09;100610.75;;;-0.30;100.00
61645;BME280;47553;52.428;13.382;2022-11-20T01:06:13;100615.19;;;-0.36;100.00
61645;BME280;47553;52.428;13.382;2022-11-20T01:08:15;100615.38;;;-0.48;100.00
61645;BME280;47553;52.428;13.382;2022-11-20T01:10:17;100613.63;;;-0.47;100.00
61645;BME280;47553;52.428;13.382;2022-11-20T01:12:18;100613.81;;;-0.61;100.00
61645;BME280;47553;52.428;13.382;2022-11-20T01:14:21;100609.25;;;-0.47;100.00
61645;BME280;47553;52.428;13.382;2022-11-20T01:16:25;100602.94;;;-0.33;100.00
61645;BME280;47553;52.428;13.382;2022-11-20T01:18:27;100609.94;;;-0.36;100.00
61645;BME280;47553;52.428;13.382;2022-11-20T01:20:29;100610.03;;;-0.42;100.00
61645;BME280;47553;52.428;13.382;2022-11-20T01:22:30;100603.75;;;-0.30;100.00
61645;BME280;47553;52.428;13.382;2022-11-20T01:24:32;100606.16;;;-0.15;100.00
61645;BME280;47553;52.428;13.382;2022-11-20T01:26:35;100603.69;;;-0.25;100.00
61645;BME280;47553;52.428;13.382;2022-11-20T01:28:38;100598.53;;;-0.31;100.00
61645;BME280;47553;52.428;13.382;2022-11-20T01:30:41;100601.94;;;-0.25;100.00
61645;BME280;47553;52.428;13.382;2022-11-20T01:32:42;100599.28;;;-0.22;100.00
61645;BME280;47553;52.428;13.382;2022-11-20T01:34:44;100590.72;;;-0.34;100.00
61645;BME280;47553;52.428;13.382;2022-11-20T01:36:46;100604.56;;;-0.26;100.00
61645;BME280;47553;52.428;13.382;2022-11-20T01:38:50;100601.03;;;-0.22;100.00
61645;BME280;47553;52.428;13.382;2022-11-20T01:40:56;100600.16;;;-0.23;100.00
61645;BME280;47553;52.428;13.382;2022-11-20T01:43:09;100599.69;;;-0.49;100.00
61645;BME280;47553;52.428;13.382;2022-11-20T01:45:50;100603.06;;;-0.43;100.00
61645;BME280;47553;52.428;13.382;2022-11-20T01:47:54;100599.66;;;-0.48;100.00
61645;BME280;47553;52.428;13.382;2022-11-20T01:50:00;100594.22;;;-0.36;100.00
61645;BME280;47553;52.428;13.382;2022-11-20T01:52:06;100601.38;;;-0.47;100.00
61645;BME280;47553;52.428;13.382;2022-11-20T01:54:13;100596.03;;;-0.41;100.00
61645;BME280;47553;52.428;13.382;2022-11-20T01:56:15;100594.16;;;-0.32;100.00
61645;BME280;47553;52.428;13.382;2022-11-20T01:58:18;100594.28;;;-0.39;100.00
61645;BME280;47553;52.428;13.382;2022-11-20T02:00:22;100592.50;;;-0.37;100.00
61645;BME280;47553;52.428;13.382;2022-11-20T02:02:24;100604.56;;;-0.25;100.00
61645;BME280;47553;52.428;13.382;2022-11-20T02:04:26;100600.16;;;-0.23;100.00
61645;BME280;47553;52.428;13.382;2022-11-20T02:06:31;100595.59;;;-0.10;100.00
61645;BME280;47553;52.428;13.382;2022-11-20T02:08:36;100594.94;;;-0.24;100.00
61645;BME280;47553;52.428;13.382;2022-11-20T02:10:38;100584.16;;;-0.06;100.00
61645;BME280;47553;52.428;13.382;2022-11-20T02:12:40;100573.50;;;0.03;100.00
61645;BME280;47553;52.428;13.382;2022-11-20T02:14:42;100586.66;;;0.00;100.00
61645;BME280;47553;52.428;13.382;2022-11-20T02:16:46;100575.91;;;0.15;100.00
61645;BME280;47553;52.428;13.382;2022-11-20T02:18:50;100569.09;;;0.05;100.00
61645;BME280;47553;52.428;13.382;2022-11-20T02:20:54;100569.41;;;-0.13;100.00
61645;BME280;47553;52.428;13.382;2022-11-20T02:23:04;100573.06;;;-0.22;100.00
61645;BME280;47553;52.428;13.382;2022-11-20T02:25:09;100569.75;;;-0.34;100.00
61645;BME280;47553;52.428;13.382;2022-11-20T02:27:12;100578.38;;;-0.28;100.00
61645;BME280;47553;52.428;13.382;2022-11-20T02:29:17;100570.81;;;-0.48;100.00
61645;BME280;47553;52.428;13.382;2022-11-20T02:31:21;100570.78;;;-0.45;100.00
61645;BME280;47553;52.428;13.382;2022-11-20T02:33:22;100573.44;;;-0.48;100.00
61645;BME280;47553;52.428;13.382;2022-11-20T02:35:41;100569.31;;;-0.62;100.00
61645;BME280;47553;52.428;13.382;2022-11-20T02:37:45;100576.00;;;-0.43;100.00
61645;BME280;47553;52.428;13.382;2022-11-20T02:39:50;100566.63;;;-0.58;100.00
61645;BME280;47553;52.428;13.382;2022-11-20T02:41:55;100564.84;;;-0.56;100.00
61645;BME280;47553;52.428;13.382;2022-11-20T02:43:57;100537.91;;;-0.64;100.00
61645;BME280;47553;52.428;13.382;2022-11-20T02:45:59;100554.22;;;-0.47;100.00
61645;BME280;47553;52.428;13.382;2022-11-20T02:48:00;100569.00;;;-0.43;100.00
61645;BME280;47553;52.428;13.382;2022-11-20T02:50:03;100562.88;;;-0.42;100.00
61645;BME280;47553;52.428;13.382;2022-11-20T02:52:05;100557.91;;;-0.60;100.00
61645;BME280;47553;52.428;13.382;2022-11-20T02:54:06;100557.91;;;-0.60;100.00
61645;BME280;47553;52.428;13.382;2022-11-20T02:56:08;100553.50;;;-0.56;100.00
61645;BME280;47553;52.428;13.382;2022-11-20T02:58:11;100554.38;;;-0.56;100.00
61645;BME280;47553;52.428;13.382;2022-11-20T03:00:13;100551.69;;;-0.53;100.00
61645;BME280;47553;52.428;13.382;2022-11-20T03:02:15;100548.88;;;-0.41;100.00
61645;BME280;47553;52.428;13.382;2022-11-20T03:04:16;100556.72;;;-0.39;100.00
61645;BME280;47553;52.428;13.382;2022-11-20T03:06:18;100553.31;;;-0.44;100.00
61645;BME280;47553;52.428;13.382;2022-11-20T03:08:20;100547.97;;;-0.38;100.00
61645;BME280;47553;52.428;13.382;2022-11-20T03:10:21;100549.03;;;-0.50;100.00
61645;BME280;47553;52.428;13.382;2022-11-20T03:12:23;100549.91;;;-0.51;100.00
61645;BME280;47553;52.428;13.382;2022-11-20T03:14:26;100547.97;;;-0.38;100.00
61645;BME280;47553;52.428;13.382;2022-11-20T03:16:27;100549.94;;;-0.52;100.00
61645;BME280;47553;52.428;13.382;2022-11-20T03:18:29;100550.41;;;-0.27;100.00
61645;BME280;47553;52.428;13.382;2022-11-20T03:20:32;100531.31;;;-0.36;100.00
61645;BME280;47553;52.428;13.382;2022-11-20T03:22:34;100543.25;;;-0.16;100.00
61645;BME280;47553;52.428;13.382;2022-11-20T03:24:35;100539.69;;;-0.12;100.00
61645;BME280;47553;52.428;13.382;2022-11-20T03:26:38;100532.50;;;-0.01;100.00
61645;BME280;47553;52.428;13.382;2022-11-20T03:28:41;100537.03;;;-0.11;100.00
61645;BME280;47553;52.428;13.382;2022-11-20T03:30:44;100537.91;;;-0.10;100.00
61645;BME280;47553;52.428;13.382;2022-11-20T03:32:45;100538.13;;;-0.22;100.00
61645;BME280;47553;52.428;13.382;2022-11-20T03:34:47;100528.06;;;-0.50;100.00
61645;BME280;47553;52.428;13.382;2022-11-20T03:36:48;100537.22;;;-0.21;100.00
61645;BME280;47553;52.428;13.382;2022-11-20T03:38:50;100535.31;;;-0.12;100.00
61645;BME280;47553;52.428;13.382;2022-11-20T03:40:59;100531.72;;;-0.06;100.00
61645;BME280;47553;52.428;13.382;2022-11-20T03:43:00;100531.97;;;-0.20;100.00
61645;BME280;47553;52.428;13.382;2022-11-20T03:45:02;100544.22;;;-0.22;100.00
61645;BME280;47553;52.428;13.382;2022-11-20T03:47:05;100529.19;;;-0.12;100.00
61645;BME280;47553;52.428;13.382;2022-11-20T03:49:07;100540.41;;;-0.04;100.00
61645;BME280;47553;52.428;13.382;2022-11-20T03:51:11;100538.19;;;-0.28;100.00
61645;BME280;47553;52.428;13.382;2022-11-20T03:53:13;100538.28;;;-0.34;100.00
61645;BME280;47553;52.428;13.382;2022-11-20T03:55:14;100531.22;;;-0.29;100.00
61645;BME280;47553;52.428;13.382;2022-11-20T03:57:16;100542.66;;;-0.35;100.00
61645;BME280;47553;52.428;13.382;2022-11-20T03:59:18;100537.56;;;-0.43;100.00
61645;BME280;47553;52.428;13.382;2022-11-20T04:01:21;100530.59;;;-0.45;100.00
61645;BME280;47553;52.428;13.382;2022-11-20T04:03:25;100534.84;;;-0.37;100.00
61645;BME280;47553;52.428;13.382;2022-11-20T04:05:27;100533.41;;;-0.56;100.00
61645;BME280;47553;52.428;13.382;2022-11-20T04:07:29;100533.22;;;-0.44;100.00
61645;BME280;47553;52.428;13.382;2022-11-20T04:09:30;100539.47;;;-0.52;100.00
61645;BME280;47553;52.428;13.382;2022-11-20T04:11:33;100532.94;;;-0.28;100.00
61645;BME280;47553;52.428;13.382;2022-11-20T04:13:35;100529.25;;;-0.15;100.00
61645;BME280;47553;52.428;13.382;2022-11-20T04:15:37;100525.16;;;-0.33;100.00
61645;BME280;47553;52.428;13.382;2022-11-20T04:17:38;100532.94;;;-0.28;100.00
61645;BME280;47553;52.428;13.382;2022-11-20T04:19:42;100531.44;;;-0.42;100.00
61645;BME280;47553;52.428;13.382;2022-11-20T04:21:44;100514.19;;;-0.55;100.00
61645;BME280;47553;52.428;13.382;2022-11-20T04:23:45;100535.78;;;-0.41;100.00
61645;BME280;47553;52.428;13.382;2022-11-20T04:25:47;100532.94;;;-0.28;100.00
61645;BME280;47553;52.428;13.382;2022-11-20T04:27:48;100531.00;;;-0.16;100.00
61645;BME280;47553;52.428;13.382;2022-11-20T04:29:50;100534.38;;;-0.09;100.00
61645;BME280;47553;52.428;13.382;2022-11-20T04:31:51;100536.28;;;-0.17;100.00
61645;BME280;47553;52.428;13.382;2022-11-20T04:33:53;100533.53;;;-0.10;100.00
61645;BME280;47553;52.428;13.382;2022-11-20T04:36:00;100527.53;;;-0.16;100.00
61645;BME280;47553;52.428;13.382;2022-11-20T04:38:02;100526.69;;;-0.18;100.00
61645;BME280;47553;52.428;13.382;2022-11-20T04:40:05;100526.34;;;0.00;100.00
61645;BME280;47553;52.428;13.382;2022-11-20T04:42:08;100523.34;;;0.21;100.00
61645;BME280;47553;52.428;13.382;2022-11-20T04:44:10;100531.97;;;0.26;100.00
61645;BME280;47553;52.428;13.382;2022-11-20T04:46:12;100528.75;;;0.12;100.00
61645;BME280;47553;52.428;13.382;2022-11-20T04:48:13;100526.78;;;0.23;100.00
61645;BME280;47553;52.428;13.382;2022-11-20T04:50:15;100525.94;;;0.21;100.00
61645;BME280;47553;52.428;13.382;2022-11-20T04:52:18;100520.56;;;0.29;100.00
61645;BME280;47553;52.428;13.382;2022-11-20T04:54:19;100517.41;;;0.12;100.00
61645;BME280;47553;52.428;13.382;2022-11-20T04:56:21;100514.53;;;0.24;100.00
61645;BME280;47553;52.428;13.382;2022-11-20T04:58:23;100515.56;;;0.15;100.00
61645;BME280;47553;52.428;13.382;2022-11-20T05:00:24;100512.13;;;0.13;100.00
61645;BME280;47553;52.428;13.382;2022-11-20T05:02:26;100516.69;;;0.02;100.00
61645;BME280;47553;52.428;13.382;2022-11-20T05:04:27;100512.00;;;0.19;100.00
61645;BME280;47553;52.428;13.382;2022-11-20T05:06:29;100510.56;;;0.03;100.00
61645;BME280;47553;52.428;13.382;2022-11-20T05:08:32;100498.13;;;0.13;100.00
61645;BME280;47553;52.428;13.382;2022-11-20T05:10:33;100495.56;;;0.11;100.00
61645;BME280;47553;52.428;13.382;2022-11-20T05:12:35;100498.13;;;0.14;100.00
61645;BME280;47553;52.428;13.382;2022-11-20T05:14:37;100493.94;;;0.04;100.00
61645;BME280;47553;52.428;13.382;2022-11-20T05:16:38;100494.59;;;0.15;100.00
61645;BME280;47553;52.428;13.382;2022-11-20T05:18:40;100491.66;;;0.31;100.00
61645;BME280;47553;52.428;13.382;2022-11-20T05:20:42;100478.28;;;-0.00;100.00
61645;BME280;47553;52.428;13.382;2022-11-20T05:22:44;100485.41;;;-0.07;100.00
61645;BME280;47553;52.428;13.382;2022-11-20T05:24:47;100490.81;;;-0.16;100.00
61645;BME280;47553;52.428;13.382;2022-11-20T05:26:48;100484.69;;;-0.15;100.00
61645;BME280;47553;52.428;13.382;2022-11-20T05:28:50;100492.25;;;0.00;100.00
61645;BME280;47553;52.428;13.382;2022-11-20T05:30:52;100489.09;;;-0.17;100.00
61645;BME280;47553;52.428;13.382;2022-11-20T05:32:53;100492.59;;;-0.18;100.00
61645;BME280;47553;52.428;13.382;2022-11-20T05:34:55;100496.22;;;-0.25;100.00
61645;BME280;47553;52.428;13.382;2022-11-20T05:36:57;100501.56;;;-0.31;100.00
61645;BME280;47553;52.428;13.382;2022-11-20T05:38:58;100494.53;;;-0.29;100.00
61645;BME280;47553;52.428;13.382;2022-11-20T05:41:04;100493.78;;;-0.36;100.00
61645;BME280;47553;52.428;13.382;2022-11-20T05:43:06;100496.22;;;-0.25;100.00
61645;BME280;47553;52.428;13.382;2022-11-20T05:45:08;100476.88;;;-0.18;100.00
61645;BME280;47553;52.428;13.382;2022-11-20T05:47:13;100488.94;;;-0.08;100.00
61645;BME280;47553;52.428;13.382;2022-11-20T05:49:14;100487.31;;;-0.15;100.00
61645;BME280;47553;52.428;13.382;2022-11-20T05:51:18;100485.78;;;-0.28;100.00
61645;BME280;47553;52.428;13.382;2022-11-20T05:53:19;100472.28;;;-0.06;100.00
61645;BME280;47553;52.428;13.382;2022-11-20T05:55:21;100479.63;;;0.20;100.00
61645;BME280;47553;52.428;13.382;2022-11-20T05:57:24;100481.19;;;0.31;100.00
61645;BME280;47553;52.428;13.382;2022-11-20T05:59:26;100474.88;;;0.39;100.00
61645;BME280;47553;52.428;13.382;2022-11-20T06:01:27;100483.75;;;0.34;100.00
61645;BME280;47553;52.428;13.382;2022-11-20T06:03:29;100481.53;;;0.12;100.00
61645;BME280;47553;52.428;13.382;2022-11-20T06:05:30;100480.78;;;0.07;100.00
61645;BME280;47553;52.428;13.382;2022-11-20T06:07:32;100475.63;;;0.03;100.00
61645;BME280;47553;52.428;13.382;2022-11-20T06:09:33;100478.63;;;0.27;100.00
61645;BME280;47553;52.428;13.382;2022-11-20T06:11:35;100479.31;;;0.36;100.00
61645;BME280;47553;52.428;13.382;2022-11-20T06:13:39;100477.78;;;0.25;100.00
61645;BME280;47553;52.428;13.382;2022-11-20T06:15:48;100478.41;;;0.38;100.00
61645;BME280;47553;52.428;13.382;2022-11-20T06:17:52;100465.78;;;0.14;100.00
61645;BME280;47553;52.428;13.382;2022-11-20T06:19:53;100479.94;;;0.05;100.00
61645;BME280;47553;52.428;13.382;2022-11-20T06:21:55;100482.28;;;0.19;100.00
61645;BME280;47553;52.428;13.382;2022-11-20T06:23:56;100477.78;;;0.25;100.00
61645;BME280;47553;52.428;13.382;2022-11-20T06:26:01;100474.72;;;0.47;100.00
61645;BME280;47553;52.428;13.382;2022-11-20T06:28:03;100479.06;;;0.48;100.00
61645;BME280;47553;52.428;13.382;2022-11-20T06:30:06;100480.53;;;0.19;100.00
61645;BME280;47553;52.428;13.382;2022-11-20T06:32:08;100481.50;;;0.14;100.00
61645;BME280;47553;52.428;13.382;2022-11-20T06:34:10;100482.34;;;0.16;100.00
61645;BME280;47553;52.428;13.382;2022-11-20T06:36:13;100483.16;;;0.19;100.00
61645;BME280;47553;52.428;13.382;2022-11-20T06:38:15;100481.19;;;0.29;100.00
61645;BME280;47553;52.428;13.382;2022-11-20T06:40:16;100485.25;;;0.45;100.00
61645;BME280;47553;52.428;13.382;2022-11-20T06:42:18;100472.72;;;0.59;100.00
61645;BME280;47553;52.428;13.382;2022-11-20T06:44:19;100489.09;;;0.71;100.00
61645;BME280;47553;52.428;13.382;2022-11-20T06:46:22;100481.09;;;0.77;100.00
61645;BME280;47553;52.428;13.382;2022-11-20T06:48:26;100479.19;;;0.42;100.00
61645;BME280;47553;52.428;13.382;2022-11-20T06:50:27;100474.13;;;0.33;100.00
61645;BME280;47553;52.428;13.382;2022-11-20T06:52:29;100481.28;;;0.68;100.00
61645;BME280;47553;52.428;13.382;2022-11-20T06:54:30;100478.22;;;0.87;100.00
61645;BME280;47553;52.428;13.382;2022-11-20T06:56:32;100474.34;;;1.04;100.00
61645;BME280;47553;52.428;13.382;2022-11-20T06:58:37;100475.72;;;1.20;100.00
61645;BME280;47553;52.428;13.382;2022-11-20T07:00:38;100475.44;;;1.32;99.70
61645;BME280;47553;52.428;13.382;2022-11-20T07:02:41;100472.19;;;1.21;100.00
61645;BME280;47553;52.428;13.382;2022-11-20T07:04:43;100450.19;;;1.27;100.00
61645;BME280;47553;52.428;13.382;2022-11-20T07:06:44;100469.84;;;1.46;96.72
61645;BME280;47553;52.428;13.382;2022-11-20T07:08:46;100475.06;;;1.47;94.79
61645;BME280;47553;52.428;13.382;2022-11-20T07:10:47;100479.75;;;1.35;97.29
61645;BME280;47553;52.428;13.382;2022-11-20T07:12:49;100481.03;;;1.17;98.55
61645;BME280;47553;52.428;13.382;2022-11-20T07:14:51;100472.47;;;1.46;94.43
61645;BME280;47553;52.428;13.382;2022-11-20T07:16:53;100471.22;;;1.61;94.03
61645;BME280;47553;52.428;13.382;2022-11-20T07:18:56;100466.75;;;1.64;96.21
61645;BME280;47553;52.428;13.382;2022-11-20T07:21:00;100468.63;;;1.59;99.42
61645;BME280;47553;52.428;13.382;2022-11-20T07:23:01;100468.75;;;1.54;94.36
61645;BME280;47553;52.428;13.382;2022-11-20T07:25:04;100462.81;;;1.46;94.89
61645;BME280;47553;52.428;13.382;2022-11-20T07:27:06;100465.19;;;1.20;93.84
61645;BME280;47553;52.428;13.382;2022-11-20T07:29:07;100462.50;;;1.25;97.20
61645;BME280;47553;52.428;13.382;2022-11-20T07:31:09;100454.28;;;1.38;96.58
61645;BME280;47553;52.428;13.382;2022-11-20T07:33:16;100455.44;;;1.27;96.68
61645;BME280;47553;52.428;13.382;2022-11-20T07:35:19;100459.09;;;1.19;100.00
61645;BME280;47553;52.428;13.382;2022-11-20T07:37:20;100470.25;;;1.29;97.84
61645;BME280;47553;52.428;13.382;2022-11-20T07:39:22;100465.28;;;1.17;99.16
61645;BME280;47553;52.428;13.382;2022-11-20T07:41:24;100462.63;;;1.18;99.47
61645;BME280;47553;52.428;13.382;2022-11-20T07:43:26;100465.38;;;1.12;99.84
61645;BME280;47553;52.428;13.382;2022-11-20T07:45:27;100454.25;;;0.64;98.41
61645;BME280;47553;52.428;13.382;2022-11-20T07:47:29;100471.25;;;0.86;100.00
61645;BME280;47553;52.428;13.382;2022-11-20T07:49:35;100459.84;;;0.87;100.00
61645;BME280;47553;52.428;13.382;2022-11-20T07:51:38;100467.47;;;0.98;100.00
61645;BME280;47553;52.428;13.382;2022-11-20T07:53:40;100466.13;;;0.80;100.00
61645;BME280;47553;52.428;13.382;2022-11-20T07:55:41;100465.81;;;0.55;100.00
61645;BME280;47553;52.428;13.382;2022-11-20T07:57:43;100457.56;;;0.72;100.00
61645;BME280;47553;52.428;13.382;2022-11-20T07:59:45;100455.84;;;0.71;100.00
61645;BME280;47553;52.428;13.382;2022-11-20T08:01:46;100457.94;;;0.94;100.00
61645;BME280;47553;52.428;13.382;2022-11-20T08:03:48;100454.19;;;0.67;100.00
61645;BME280;47553;52.428;13.382;2022-11-20T08:05:49;100456.59;;;0.76;100.00
61645;BME280;47553;52.428;13.382;2022-11-20T08:07:52;100457.44;;;0.78;100.00
61645;BME280;47553;52.428;13.382;2022-11-20T08:09:54;100466.28;;;0.74;99.82
61645;BME280;47553;52.428;13.382;2022-11-20T08:11:55;100462.75;;;0.75;100.00
61645;BME280;47553;52.428;13.382;2022-11-20T08:13:57;100460.59;;;0.92;100.00
61645;BME280;47553;52.428;13.382;2022-11-20T08:15:58;100458.78;;;0.96;100.00
61645;BME280;47553;52.428;13.382;2022-11-20T08:18:02;100443.19;;;1.26;100.00
61645;BME280;47553;52.428;13.382;2022-11-20T08:20:23;100440.97;;;1.09;99.82
61645;BME280;47553;52.428;13.382;2022-11-20T08:22:25;100449.31;;;1.26;99.95
61645;BME280;47553;52.428;13.382;2022-11-20T08:24:28;100445.00;;;1.58;100.00
61645;BME280;47553;52.428;13.382;2022-11-20T08:26:29;100447.06;;;1.79;100.00
61645;BME280;47553;52.428;13.382;2022-11-20T08:28:31;100454.19;;;1.41;93.11
61645;BME280;47553;52.428;13.382;2022-11-20T08:30:33;100447.13;;;1.43;94.21
61645;BME280;47553;52.428;13.382;2022-11-20T08:32:35;100447.84;;;1.50;96.32
61645;BME280;47553;52.428;13.382;2022-11-20T08:34:36;100453.25;;;1.44;96.94
61645;BME280;47553;52.428;13.382;2022-11-20T08:36:38;100450.22;;;1.25;97.50
61645;BME280;47553;52.428;13.382;2022-11-20T08:38:39;100436.66;;;1.42;98.11
61645;BME280;47553;52.428;13.382;2022-11-20T08:40:43;100438.28;;;1.47;97.22
61645;BME280;47553;52.428;13.382;2022-11-20T08:42:48;100429.97;;;1.63;98.63
61645;BME280;47553;52.428;13.382;2022-11-20T08:44:50;100448.06;;;1.75;98.43
61645;BME280;47553;52.428;13.382;2022-11-20T08:46:51;100437.91;;;1.94;97.50
61645;BME280;47553;52.428;13.382;2022-11-20T08:48:53;100439.34;;;1.73;97.36
61645;BME280;47553;52.428;13.382;2022-11-20T08:50:58;100434.28;;;1.99;96.13
61645;BME280;47553;52.428;13.382;2022-11-20T08:53:02;100432.13;;;1.81;94.94
61645;BME280;47553;52.428;13.382;2022-11-20T08:55:05;100425.34;;;2.05;92.30
61645;BME280;47553;52.428;13.382;2022-11-20T08:57:10;100429.94;;;1.97;93.53
61645;BME280;47553;52.428;13.382;2022-11-20T08:59:11;100429.66;;;2.07;91.43
61645;BME280;47553;52.428;13.382;2022-11-20T09:01:33;100423.81;;;1.96;90.88
61645;BME280;47553;52.428;13.382;2022-11-20T09:03:35;100430.53;;;2.08;96.92
61645;BME280;47553;52.428;13.382;2022-11-20T09:05:37;100411.34;;;2.04;91.47
61645;BME280;47553;52.428;13.382;2022-11-20T09:07:38;100439.38;;;2.05;89.29
61645;BME280;47553;52.428;13.382;2022-11-20T09:09:39;100455.47;;;1.93;92.54
61645;BME280;47553;52.428;13.382;2022-11-20T09:11:41;100442.22;;;1.98;91.33
61645;BME280;47553;52.428;13.382;2022-11-20T09:13:44;100444.91;;;1.95;90.34
61645;BME280;47553;52.428;13.382;2022-11-20T09:15:46;100440.25;;;1.72;91.21
61645;BME280;47553;52.428;13.382;2022-11-20T09:17:50;100433.84;;;1.82;89.56
61645;BME280;47553;52.428;13.382;2022-11-20T09:19:52;100438.78;;;1.94;89.76
61645;BME280;47553;52.428;13.382;2022-11-20T09:21:53;100437.94;;;1.92;89.13
61645;BME280;47553;52.428;13.382;2022-11-20T09:24:00;100441.34;;;1.96;89.15
61645;BME280;47553;52.428;13.382;2022-11-20T09:26:02;100441.19;;;2.03;89.04
61645;BME280;47553;52.428;13.382;2022-11-20T09:28:04;100452.91;;;1.90;87.94
61645;BME280;47553;52.428;13.382;2022-11-20T09:30:11;100444.94;;;1.93;90.82
61645;BME280;47553;52.428;13.382;2022-11-20T09:32:13;100434.41;;;1.93;90.71
61645;BME280;47553;52.428;13.382;2022-11-20T09:34:15;100446.25;;;2.09;89.54
61645;BME280;47553;52.428;13.382;2022-11-20T09:36:16;100443.16;;;1.94;90.72
61645;BME280;47553;52.428;13.382;2022-11-20T09:38:18;100445.84;;;1.60;89.34
61645;BME280;47553;52.428;13.382;2022-11-20T09:40:22;100434.19;;;1.70;92.30
61645;BME280;47553;52.428;13.382;2022-11-20T09:42:34;100431.66;;;1.99;87.29
61645;BME280;47553;52.428;13.382;2022-11-20T09:44:52;100434.31;;;1.98;91.15
61645;BME280;47553;52.428;13.382;2022-11-20T09:47:04;100440.44;;;1.98;90.00
61645;BME280;47553;52.428;13.382;2022-11-20T09:49:23;100437.69;;;2.03;92.82
61645;BME280;47553;52.428;13.382;2022-11-20T09:51:39;100431.78;;;1.93;90.45
61645;BME280;47553;52.428;13.382;2022-11-20T09:53:56;100435.19;;;1.98;96.85
61645;BME280;47553;52.428;13.382;2022-11-20T09:56:02;100431.38;;;2.08;91.50
61645;BME280;47553;52.428;13.382;2022-11-20T09:58:06;100423.28;;;2.16;85.43
61645;BME280;47553;52.428;13.382;2022-11-20T10:00:10;100422.28;;;2.20;86.34
61645;BME280;47553;52.428;13.382;2022-11-20T10:02:24;100422.31;;;2.18;90.20
61645;BME280;47553;52.428;13.382;2022-11-20T10:04:28;100427.13;;;2.04;87.76
61645;BME280;47553;52.428;13.382;2022-11-20T10:06:32;100413.28;;;1.98;87.64
61645;BME280;47553;52.428;13.382;2022-11-20T10:08:40;100424.22;;;1.81;89.57
61645;BME280;47553;52.428;13.382;2022-11-20T10:10:44;100419.41;;;1.98;89.76
61645;BME280;47553;52.428;13.382;2022-11-20T10:13:05;100412.06;;;2.09;88.84
61645;BME280;47553;52.428;13.382;2022-11-20T10:15:17;100410.56;;;1.68;91.54
61645;BME280;47553;52.428;13.382;2022-11-20T10:17:35;100414.94;;;1.68;93.10
61645;BME280;47553;52.428;13.382;2022-11-20T10:19:51;100413.28;;;1.31;91.16
61645;BME280;47553;52.428;13.382;2022-11-20T10:22:06;100414.31;;;1.26;93.41
61645;BME280;47553;52.428;13.382;2022-11-20T10:24:27;100425.28;;;1.06;93.39
61645;BME280;47553;52.428;13.382;2022-11-20T10:26:39;100414.41;;;0.84;94.67
61645;BME280;47553;52.428;13.382;2022-11-20T10:28:52;100404.69;;;1.25;100.00
61645;BME280;47553;52.428;13.382;2022-11-20T10:31:06;100415.50;;;1.11;97.36
61645;BME280;47553;52.428;13.382;2022-11-20T10:33:16;100398.09;;;1.07;100.00
61645;BME280;47553;52.428;13.382;2022-11-20T10:35:21;100415.06;;;0.94;97.78